Terminal Aerodrome Forecast
Issued by NWS Cleveland, OH

Home | Current Version | Previous Version | Text Only | Print | Product List | Glossary Off
Versions: 1 2 3 4 5 6 7 8 9 10 11 12 13 14 15 16 17 18 19

972
FTUS41 KCLE 210843 AAA
TAFMFD
TAF AMD
KMFD 210843Z 2109/2206 04005KT 1 1/2SM -SHRA BR OVC002
      TEMPO 2109/2113 4SM -SHRA OVC008
     FM211300 02006KT 5SM -SHRA BR OVC005
     FM211600 01010KT P6SM VCSH SCT008 OVC015
     FM212100 01006KT P6SM SCT025 OVC070
     FM220300 VRB03KT 4SM BR BKN200=

USA.gov is the U.S. government's official web portal to all federal, state and local government web resources and services.